createdAt,value
2023-04-22T00:00:21.803Z,11.30
2023-04-22T00:03:10.070Z,11.20
2023-04-22T00:05:58.241Z,11.10
2023-04-22T00:08:43.671Z,11.10
2023-04-22T00:11:29.266Z,11.10
2023-04-22T00:14:14.645Z,11.10
2023-04-22T00:17:02.393Z,10.90
2023-04-22T00:19:47.747Z,10.90
2023-04-22T00:22:35.280Z,10.90
2023-04-22T00:25:22.618Z,10.80
2023-04-22T00:28:11.200Z,10.80
2023-04-22T00:30:59.041Z,10.80
2023-04-22T00:33:44.948Z,10.80
2023-04-22T00:36:31.431Z,10.80
2023-04-22T00:39:17.419Z,10.60
2023-04-22T00:42:03.356Z,10.70
2023-04-22T00:44:49.604Z,10.70
2023-04-22T00:47:36.875Z,10.60
2023-04-22T00:50:22.167Z,10.50
2023-04-22T00:53:07.832Z,10.60
2023-04-22T00:55:53.187Z,10.60
2023-04-22T00:58:40.805Z,10.50
2023-04-22T01:01:27.064Z,10.50
2023-04-22T01:04:14.422Z,10.60
2023-04-22T01:07:01.894Z,10.70
2023-04-22T01:09:47.914Z,10.60
2023-04-22T01:12:34.733Z,10.40
2023-04-22T01:15:20.678Z,10.50
2023-04-22T01:18:07.235Z,10.40
2023-04-22T01:20:54.097Z,10.30
2023-04-22T01:23:39.818Z,10.40
2023-04-22T01:26:25.697Z,10.30
2023-04-22T01:29:11.339Z,10.40
2023-04-22T01:31:57.424Z,10.40
2023-04-22T01:34:45.382Z,10.30
2023-04-22T01:37:31.212Z,10.30
2023-04-22T01:40:19.802Z,10.20
2023-04-22T01:43:08.248Z,10.20
2023-04-22T01:45:54.086Z,10.20
2023-04-22T01:48:40.649Z,10.40
2023-04-22T01:51:26.249Z,10.30
2023-04-22T01:54:12.195Z,10.40
2023-04-22T01:56:58.709Z,10.30
2023-04-22T01:59:46.635Z,10.30
2023-04-22T02:02:32.072Z,10.40
2023-04-22T02:05:20.065Z,10.40
2023-04-22T02:08:05.811Z,10.30
2023-04-22T02:10:51.359Z,10.30
2023-04-22T02:13:43.062Z,10.40
2023-04-22T02:16:28.485Z,10.20
2023-04-22T02:19:14.247Z,10.30
2023-04-22T02:22:02.699Z,10.40
2023-04-22T02:24:48.014Z,10.30
2023-04-22T02:27:33.631Z,10.30
2023-04-22T02:30:18.968Z,10.10
2023-04-22T02:33:06.661Z,10.20
2023-04-22T02:35:52.424Z,10.10
2023-04-22T02:38:38.394Z,9.80
2023-04-22T02:41:28.487Z,9.70
2023-04-22T02:44:16.193Z,9.70
2023-04-22T02:47:03.774Z,9.60
2023-04-22T02:49:49.854Z,9.60
2023-04-22T02:52:35.446Z,9.60
2023-04-22T02:55:21.928Z,9.50
2023-04-22T02:58:08.881Z,9.60
2023-04-22T03:00:57.980Z,9.50
2023-04-22T03:03:43.603Z,9.50
2023-04-22T03:06:29.516Z,9.50
2023-04-22T03:09:15.292Z,9.50
2023-04-22T03:12:02.828Z,9.40
2023-04-22T03:14:48.170Z,9.40
2023-04-22T03:17:34.786Z,9.50
2023-04-22T03:20:22.738Z,9.40
2023-04-22T03:23:08.899Z,9.20
2023-04-22T03:25:54.389Z,9.30
2023-04-22T03:28:40.254Z,9.20
2023-04-22T03:31:26.320Z,9.20
2023-04-22T03:34:13.849Z,8.90
2023-04-22T03:37:03.700Z,8.80
2023-04-22T03:39:48.988Z,8.80
2023-04-22T03:42:39.329Z,8.90
2023-04-22T03:45:25.842Z,8.80
2023-04-22T03:48:13.459Z,8.70
2023-04-22T03:50:59.175Z,8.60
2023-04-22T03:53:44.683Z,8.60
2023-04-22T03:56:30.407Z,8.80
2023-04-22T03:59:15.917Z,8.90
2023-04-22T04:02:04.017Z,8.70
2023-04-22T04:04:51.904Z,8.80
2023-04-22T04:07:40.184Z,8.90
2023-04-22T04:10:25.693Z,9.10
2023-04-22T04:13:13.475Z,9.00
2023-04-22T04:16:00.431Z,9.10
2023-04-22T04:18:46.015Z,9.10
2023-04-22T04:21:33.435Z,9.10
2023-04-22T04:24:19.604Z,9.10
2023-04-22T04:27:04.846Z,9.00
2023-04-22T04:29:50.388Z,9.10
2023-04-22T04:32:36.744Z,9.00
2023-04-22T04:35:24.769Z,9.00
2023-04-22T04:38:10.396Z,9.10
2023-04-22T04:40:58.076Z,9.20
2023-04-22T04:43:46.370Z,9.20
2023-04-22T04:46:32.465Z,9.20
2023-04-22T04:49:21.709Z,9.10
2023-04-22T04:52:10.233Z,9.00
2023-04-22T04:54:57.722Z,9.00
2023-04-22T04:57:47.345Z,9.10
2023-04-22T05:00:32.839Z,9.10
2023-04-22T05:03:18.592Z,9.20
2023-04-22T05:06:07.183Z,9.20
2023-04-22T05:08:54.612Z,9.30
2023-04-22T05:11:39.891Z,9.30
2023-04-22T05:14:25.369Z,9.30
2023-04-22T05:17:11.145Z,9.30
2023-04-22T05:19:57.003Z,9.40
2023-04-22T05:22:43.271Z,9.40
2023-04-22T05:25:32.014Z,9.50
2023-04-22T05:28:19.881Z,9.50
2023-04-22T05:31:05.525Z,9.50
2023-04-22T05:33:50.859Z,9.40
2023-04-22T05:36:39.271Z,9.40
2023-04-22T05:39:24.853Z,9.50
2023-04-22T05:42:10.865Z,9.50
2023-04-22T05:44:56.408Z,9.50
2023-04-22T05:47:42.487Z,9.60
2023-04-22T05:50:28.195Z,9.70
2023-04-22T05:53:13.466Z,9.60
2023-04-22T05:55:59.372Z,9.80
2023-04-22T05:58:47.131Z,9.70
2023-04-22T06:01:32.329Z,9.80
2023-04-22T06:04:19.110Z,9.70
2023-04-22T06:07:05.075Z,9.90
2023-04-22T06:09:57.011Z,9.90
2023-04-22T06:12:47.740Z,10.00
2023-04-22T06:15:34.587Z,10.20
2023-04-22T06:18:20.782Z,10.20
2023-04-22T06:21:06.392Z,10.30
2023-04-22T06:23:51.894Z,10.40
2023-04-22T06:26:37.880Z,10.50
2023-04-22T06:29:23.246Z,10.60
2023-04-22T06:32:08.925Z,10.50
2023-04-22T06:34:54.650Z,10.60
2023-04-22T06:37:40.309Z,10.70
2023-04-22T06:40:26.056Z,10.90
2023-04-22T06:43:12.594Z,10.90
2023-04-22T06:46:00.729Z,10.90
2023-04-22T06:48:48.740Z,10.90
2023-04-22T06:51:36.472Z,11.10
2023-04-22T06:54:21.925Z,11.30
2023-04-22T06:57:08.163Z,11.30
2023-04-22T06:59:54.367Z,11.50
2023-04-22T07:02:39.898Z,11.70
2023-04-22T07:05:29.097Z,11.70
2023-04-22T07:08:15.199Z,11.80
2023-04-22T07:11:03.114Z,12.00
2023-04-22T07:13:48.665Z,12.10
2023-04-22T07:16:34.318Z,12.10
2023-04-22T07:19:19.778Z,12.10
2023-04-22T07:22:07.445Z,12.20
2023-04-22T07:24:52.571Z,12.20
2023-04-22T07:27:39.212Z,12.20
2023-04-22T07:30:27.133Z,12.20
2023-04-22T07:33:12.692Z,12.40
2023-04-22T07:35:58.252Z,12.50
2023-04-22T07:38:46.560Z,12.70
2023-04-22T07:41:32.179Z,12.80
2023-04-22T07:44:21.461Z,12.80
2023-04-22T07:47:10.399Z,12.80
2023-04-22T07:49:56.005Z,12.80
2023-04-22T07:52:41.281Z,12.80
2023-04-22T07:55:27.000Z,12.70
2023-04-22T07:58:12.381Z,12.90
2023-04-22T08:00:59.690Z,13.00
2023-04-22T08:03:45.336Z,13.10
2023-04-22T08:06:31.987Z,13.20
2023-04-22T08:09:17.481Z,13.30
2023-04-22T08:12:03.464Z,13.40
2023-04-22T08:14:51.223Z,13.40
2023-04-22T08:17:37.482Z,13.40
2023-04-22T08:20:23.569Z,13.50
2023-04-22T08:23:10.742Z,13.80
2023-04-22T08:25:56.030Z,13.80
2023-04-22T08:28:42.315Z,14.00
2023-04-22T08:31:27.645Z,14.00
2023-04-22T08:34:13.334Z,14.20
2023-04-22T08:36:58.957Z,14.40
2023-04-22T08:39:46.362Z,14.50
2023-04-22T08:42:31.798Z,14.70
2023-04-22T08:45:17.836Z,14.80
2023-04-22T08:48:04.351Z,14.90
2023-04-22T08:50:50.403Z,14.90
2023-04-22T08:53:36.147Z,15.20
2023-04-22T08:56:25.322Z,15.30
2023-04-22T08:59:11.725Z,15.40
2023-04-22T09:01:58.399Z,15.20
2023-04-22T09:04:46.788Z,15.10
2023-04-22T09:07:36.381Z,15.20
2023-04-22T09:10:22.193Z,15.50
2023-04-22T09:13:11.763Z,15.70
2023-04-22T09:15:59.751Z,15.80
2023-04-22T09:18:48.382Z,15.70
2023-04-22T09:21:34.439Z,15.90
2023-04-22T09:24:22.814Z,16.00
2023-04-22T09:27:08.347Z,16.20
2023-04-22T09:29:53.670Z,16.30
2023-04-22T09:32:40.116Z,16.30
2023-04-22T09:35:36.948Z,16.30
2023-04-22T09:38:30.906Z,16.50
2023-04-22T09:41:19.033Z,16.60
2023-04-22T09:44:08.584Z,16.90
2023-04-22T09:46:59.299Z,17.00
2023-04-22T09:49:49.551Z,16.90
2023-04-22T09:52:34.890Z,16.80
2023-04-22T09:55:22.816Z,16.90
2023-04-22T09:58:13.774Z,16.90
2023-04-22T10:01:03.492Z,17.00
2023-04-22T10:03:49.032Z,17.10
2023-04-22T10:06:34.399Z,17.30
2023-04-22T10:09:21.906Z,17.30
2023-04-22T10:12:07.914Z,17.30
2023-04-22T10:14:53.376Z,17.40
2023-04-22T10:17:39.695Z,17.50
2023-04-22T10:20:29.186Z,17.50
2023-04-22T10:23:22.873Z,17.80
2023-04-22T10:26:08.668Z,18.00
2023-04-22T10:28:54.416Z,18.00
2023-04-22T10:31:51.755Z,18.00
2023-04-22T10:34:40.167Z,18.20
2023-04-22T10:37:26.729Z,18.30
2023-04-22T10:40:18.313Z,18.30
2023-04-22T10:43:04.714Z,18.40
2023-04-22T10:45:50.765Z,18.60
2023-04-22T10:48:49.944Z,18.60
2023-04-22T10:51:48.330Z,18.70
2023-04-22T10:54:39.967Z,18.70
2023-04-22T10:57:36.315Z,18.90
2023-04-22T11:00:41.916Z,19.10
2023-04-22T11:03:36.546Z,19.20
2023-04-22T11:06:23.267Z,19.40
2023-04-22T11:09:10.646Z,19.40
2023-04-22T11:12:34.729Z,19.50
2023-04-22T11:15:23.063Z,19.50
2023-04-22T11:18:11.637Z,19.60
2023-04-22T11:21:02.646Z,19.70
2023-04-22T11:24:02.759Z,19.80
2023-04-22T11:26:47.984Z,20.00
2023-04-22T11:29:33.200Z,20.00
2023-04-22T11:32:21.070Z,20.00
2023-04-22T11:35:09.452Z,19.90
2023-04-22T11:38:03.505Z,20.00
2023-04-22T11:40:49.257Z,20.10
2023-04-22T11:43:35.045Z,20.20
2023-04-22T11:46:41.099Z,20.30
2023-04-22T11:49:26.853Z,20.40
2023-04-22T11:52:15.326Z,20.50
2023-04-22T11:55:00.902Z,20.60
2023-04-22T11:57:52.153Z,20.70
2023-04-22T12:00:45.455Z,20.90
2023-04-22T12:03:31.713Z,21.00
2023-04-22T12:06:17.427Z,21.00
2023-04-22T12:09:02.979Z,21.10
2023-04-22T12:11:48.129Z,21.20
2023-04-22T12:14:34.777Z,21.30
2023-04-22T12:17:26.130Z,21.40
2023-04-22T12:20:13.106Z,21.30
2023-04-22T12:23:01.850Z,21.40
2023-04-22T12:25:47.129Z,21.80
2023-04-22T12:28:35.494Z,22.30
2023-04-22T12:31:23.154Z,22.90
2023-04-22T12:34:09.182Z,24.00
2023-04-22T12:36:56.271Z,25.40
2023-04-22T12:39:44.198Z,32.20
2023-04-22T12:42:29.822Z,34.70
2023-04-22T12:45:17.682Z,37.40
2023-04-22T12:48:03.960Z,40.20
2023-04-22T12:50:49.240Z,41.40
2023-04-22T12:53:35.076Z,42.00
2023-04-22T12:56:22.663Z,41.60
2023-04-22T12:59:07.837Z,42.70
2023-04-22T13:01:54.857Z,44.40
2023-04-22T13:04:43.780Z,46.00
2023-04-22T13:07:29.653Z,49.50
2023-04-22T13:10:16.697Z,51.00
2023-04-22T13:13:16.752Z,50.40
2023-04-22T13:16:04.420Z,51.70
2023-04-22T13:18:50.576Z,50.30
2023-04-22T13:21:35.871Z,53.00
2023-04-22T13:24:21.373Z,54.10
2023-04-22T13:27:07.226Z,54.80
2023-04-22T13:29:55.305Z,52.70
2023-04-22T13:32:40.880Z,54.40
2023-04-22T13:35:26.651Z,52.60
2023-04-22T13:38:14.692Z,53.50
2023-04-22T13:41:03.432Z,54.30
2023-04-22T13:43:54.169Z,55.00
2023-04-22T13:46:41.207Z,55.10
2023-04-22T13:49:27.445Z,53.40
2023-04-22T13:52:13.283Z,52.30
2023-04-22T13:54:58.860Z,52.20
2023-04-22T13:57:47.662Z,51.50
2023-04-22T14:00:36.454Z,50.70
2023-04-22T14:03:22.178Z,51.20
2023-04-22T14:06:08.052Z,51.50
2023-04-22T14:08:54.443Z,49.90
2023-04-22T14:11:43.068Z,50.10
2023-04-22T14:14:28.779Z,47.70
2023-04-22T14:17:17.541Z,46.80
2023-04-22T14:20:06.771Z,47.70
2023-04-22T14:22:57.294Z,48.90
2023-04-22T14:25:44.107Z,47.90
2023-04-22T14:28:29.923Z,47.20
2023-04-22T14:31:18.622Z,47.00
2023-04-22T14:34:04.340Z,46.80
2023-04-22T14:36:49.774Z,46.60
2023-04-22T14:39:37.781Z,45.70
2023-04-22T14:42:24.804Z,45.90
2023-04-22T14:45:14.642Z,44.10
2023-04-22T14:48:00.541Z,42.50
2023-04-22T14:50:46.206Z,43.60
2023-04-22T14:53:34.352Z,42.00
2023-04-22T14:56:22.952Z,42.20
2023-04-22T14:59:08.356Z,41.60
2023-04-22T15:01:54.387Z,41.10
2023-04-22T15:04:39.944Z,39.00
2023-04-22T15:07:26.370Z,37.00
2023-04-22T15:10:12.114Z,36.50
2023-04-22T15:12:58.367Z,33.70
2023-04-22T15:15:43.734Z,31.80
2023-04-22T15:18:29.311Z,31.10
2023-04-22T15:21:14.776Z,31.20
2023-04-22T15:24:00.008Z,29.40
2023-04-22T15:26:45.690Z,29.20
2023-04-22T15:29:34.099Z,29.50
2023-04-22T15:32:19.254Z,31.60
2023-04-22T15:35:06.302Z,32.60
2023-04-22T15:37:52.655Z,31.60
2023-04-22T15:40:38.051Z,30.10
2023-04-22T15:43:25.858Z,29.50
2023-04-22T15:46:14.606Z,29.10
2023-04-22T15:49:00.743Z,28.10
2023-04-22T15:51:46.367Z,27.70
2023-04-22T15:54:31.969Z,28.80
2023-04-22T15:57:17.303Z,29.80
2023-04-22T16:00:14.091Z,29.10
2023-04-22T16:02:59.893Z,30.00
2023-04-22T16:05:45.467Z,30.20
2023-04-22T16:08:31.054Z,29.70
2023-04-22T16:11:16.534Z,30.50
2023-04-22T16:14:02.412Z,28.80
2023-04-22T16:16:48.029Z,29.50
2023-04-22T16:19:35.681Z,29.60
2023-04-22T16:22:21.019Z,29.90
2023-04-22T16:25:08.149Z,29.90
2023-04-22T16:27:55.650Z,29.70
2023-04-22T16:30:40.880Z,28.50
2023-04-22T16:33:26.461Z,28.10
2023-04-22T16:36:11.819Z,27.70
2023-04-22T16:38:57.375Z,28.30
2023-04-22T16:41:43.367Z,28.30
2023-04-22T16:44:28.521Z,29.00
2023-04-22T16:47:14.126Z,28.40
2023-04-22T16:49:59.707Z,27.50
2023-04-22T16:52:47.638Z,27.30
2023-04-22T16:55:34.482Z,27.00
2023-04-22T16:58:23.572Z,26.60
2023-04-22T17:01:11.374Z,26.50
2023-04-22T17:03:59.474Z,26.00
2023-04-22T17:06:45.753Z,26.00
2023-04-22T17:09:33.037Z,25.60
2023-04-22T17:12:20.437Z,25.40
2023-04-22T17:15:06.612Z,24.80
2023-04-22T17:17:52.282Z,24.80
2023-04-22T17:20:37.815Z,24.20
2023-04-22T17:23:24.395Z,23.40
2023-04-22T17:26:09.969Z,22.70
2023-04-22T17:28:57.809Z,22.00
2023-04-22T17:31:46.049Z,21.60
2023-04-22T17:34:31.855Z,21.00
2023-04-22T17:37:19.239Z,20.70
2023-04-22T17:40:05.172Z,20.30
2023-04-22T17:42:55.285Z,20.10
2023-04-22T17:45:40.633Z,19.70
2023-04-22T17:48:26.172Z,19.50
2023-04-22T17:51:11.985Z,19.30
2023-04-22T17:53:57.445Z,19.00
2023-04-22T17:56:45.110Z,18.70
2023-04-22T17:59:30.576Z,18.50
2023-04-22T18:02:15.963Z,18.30
2023-04-22T18:05:05.532Z,18.20
2023-04-22T18:07:50.743Z,18.10
2023-04-22T18:10:36.636Z,18.00
2023-04-22T18:13:22.384Z,17.80
2023-04-22T18:16:10.376Z,17.70
2023-04-22T18:18:56.250Z,17.80
2023-04-22T18:21:52.957Z,17.60
2023-04-22T18:24:44.704Z,17.50
2023-04-22T18:27:30.352Z,17.30
2023-04-22T18:30:16.277Z,17.50
2023-04-22T18:33:04.619Z,17.10
2023-04-22T18:35:50.983Z,16.90
2023-04-22T18:38:38.674Z,16.90
2023-04-22T18:41:25.501Z,17.00
2023-04-22T18:44:13.819Z,17.00
2023-04-22T18:46:59.697Z,16.90
2023-04-22T18:49:45.477Z,16.80
2023-04-22T18:52:31.071Z,16.70
2023-04-22T18:55:18.762Z,16.70
2023-04-22T18:58:04.130Z,16.70
2023-04-22T19:00:53.389Z,16.70
2023-04-22T19:03:42.107Z,16.70
2023-04-22T19:06:30.455Z,16.50
2023-04-22T19:09:19.418Z,16.30
2023-04-22T19:12:06.466Z,16.10
2023-04-22T19:14:54.198Z,16.10
2023-04-22T19:17:39.589Z,16.00
2023-04-22T19:20:24.948Z,15.80
2023-04-22T19:23:10.954Z,15.60
2023-04-22T19:25:56.804Z,15.40
2023-04-22T19:28:47.030Z,15.50
2023-04-22T19:31:32.588Z,15.30
2023-04-22T19:34:21.222Z,15.30
2023-04-22T19:37:06.740Z,15.30
2023-04-22T19:39:52.105Z,15.40
2023-04-22T19:42:38.079Z,15.20
2023-04-22T19:45:23.668Z,15.20
2023-04-22T19:48:11.718Z,15.10
2023-04-22T19:50:57.450Z,15.30
2023-04-22T19:53:43.897Z,15.40
2023-04-22T19:56:29.749Z,15.50
2023-04-22T19:59:18.200Z,15.40
2023-04-22T20:02:04.197Z,15.30
2023-04-22T20:04:50.740Z,15.40
2023-04-22T20:07:39.197Z,15.50
2023-04-22T20:10:26.075Z,15.40
2023-04-22T20:13:11.356Z,15.30
2023-04-22T20:15:58.716Z,15.30
2023-04-22T20:18:44.367Z,15.30
2023-04-22T20:21:30.977Z,15.20
2023-04-22T20:24:19.758Z,15.30
2023-04-22T20:27:07.333Z,15.10
2023-04-22T20:29:53.492Z,15.00
2023-04-22T20:32:39.182Z,15.10
2023-04-22T20:35:25.982Z,15.10
2023-04-22T20:38:13.370Z,15.10
2023-04-22T20:41:02.101Z,14.90
2023-04-22T20:43:47.499Z,14.90
2023-04-22T20:46:33.709Z,14.70
2023-04-22T20:49:19.374Z,14.60
2023-04-22T20:52:04.661Z,14.60
2023-04-22T20:54:55.032Z,14.70
2023-04-22T20:57:41.134Z,14.90
2023-04-22T21:00:27.062Z,15.00
2023-04-22T21:03:14.768Z,15.10
2023-04-22T21:06:02.102Z,15.10
2023-04-22T21:08:51.383Z,15.20
2023-04-22T21:11:37.145Z,15.20
2023-04-22T21:14:26.414Z,15.00
2023-04-22T21:17:25.336Z,15.00
2023-04-22T21:20:12.246Z,14.90
2023-04-22T21:23:00.650Z,15.00
2023-04-22T21:25:48.596Z,14.90
2023-04-22T21:28:34.523Z,14.80
2023-04-22T21:31:21.058Z,14.90
2023-04-22T21:34:08.573Z,15.00
2023-04-22T21:36:56.003Z,14.90
2023-04-22T21:39:42.013Z,14.90
2023-04-22T21:42:29.946Z,15.00
2023-04-22T21:45:15.439Z,15.10
2023-04-22T21:48:01.919Z,15.00
2023-04-22T21:50:47.990Z,15.00
2023-04-22T21:53:33.724Z,15.00
2023-04-22T21:56:24.873Z,15.00
2023-04-22T21:59:10.724Z,15.00
2023-04-22T22:01:56.946Z,15.00
2023-04-22T22:04:43.017Z,15.00
2023-04-22T22:07:30.512Z,15.00
2023-04-22T22:10:19.281Z,15.00
2023-04-22T22:13:10.509Z,15.00
2023-04-22T22:15:57.475Z,15.00
2023-04-22T22:18:45.645Z,15.10
2023-04-22T22:21:33.693Z,15.10
2023-04-22T22:24:19.593Z,15.00
2023-04-22T22:27:05.454Z,15.00
2023-04-22T22:29:51.010Z,15.00
2023-04-22T22:32:36.556Z,15.00
2023-04-22T22:35:24.571Z,15.00
2023-04-22T22:38:09.852Z,15.00
2023-04-22T22:40:55.435Z,15.00
2023-04-22T22:43:40.806Z,15.00
2023-04-22T22:46:29.047Z,15.00
2023-04-22T22:49:14.417Z,14.90
2023-04-22T22:52:01.540Z,14.90
2023-04-22T22:54:49.907Z,14.80
2023-04-22T22:57:35.885Z,14.80
2023-04-22T23:00:21.569Z,14.70
2023-04-22T23:03:07.280Z,14.70
2023-04-22T23:05:57.413Z,14.50
2023-04-22T23:08:42.645Z,14.50
2023-04-22T23:11:28.307Z,14.40
2023-04-22T23:14:17.817Z,14.40
2023-04-22T23:17:03.650Z,14.40
2023-04-22T23:19:55.128Z,14.40
2023-04-22T23:22:42.136Z,14.40
2023-04-22T23:25:28.220Z,14.40
2023-04-22T23:28:14.217Z,14.40
2023-04-22T23:31:02.412Z,14.40
2023-04-22T23:33:52.164Z,14.30
2023-04-22T23:36:40.534Z,14.30
2023-04-22T23:39:27.960Z,14.30
2023-04-22T23:42:13.077Z,14.20
2023-04-22T23:45:00.583Z,14.10
2023-04-22T23:47:48.480Z,14.10
2023-04-22T23:50:34.592Z,14.10
2023-04-22T23:53:20.043Z,14.00
2023-04-22T23:56:09.098Z,13.90
2023-04-22T23:58:57.142Z,13.90
